Welcome! 

Register :: Login
Manufacturers Index - Rockwell Manufacturing Co.

Rockwell Manufacturing Co.
Pittsburgh, PA, U.S.A.
Manufacturer Class: Wood Working Machinery & Metal Working Machinery

Photo Index
The Vintage Machinery Photo Index is a place where members of this site can submit photos of old woodworking machinery. The Index is a valuable resource in that visitors to this site can see examples of machinery made by many different manufacturers.

Submitting Photos

If you would like to submit a photo of a machine made by this manufacturer, please Submit Machinery Photos.


There are currently 639 Photo Index submissions for this manufacturer.

Filter results by Machine Type:    
Tip You can sort the below table by clicking on the table title you wish to sort by

Insert Date
08/22/2014 Jointer 37-220 6" 1967 DR3492 Warburton, Rob
08/17/2014 Planer, Wood 22-401 13" X 6" Unk - mid 70's Unk Toupin, M
08/08/2014 Jig or Scroll Saw 24" Scroll Saw 24" 1940-50 012792 Walter, Kurt
08/07/2014 Jointer Jointer 6" 1955 BG 5420 Trogden, Steve
08/05/2014 Lathe, Wood Rockwell 46-111 Wood Lathe 11" throw, 44" length 1974 (per serial number) GD-8674 Taylor, RIch
07/28/2014 Table Saw model 34-425 10" table saw 1962 CV5580 Willard, Russell
07/24/2014 Grinder, Bench 23-903 Grinder/Belt Sander 10" 1982 ? W5-82 Stettner, Raymond
07/13/2014 Band Saw 28-200 14 inches 1972 FF 8681 Baker, Wendy & Lance
07/13/2014 Sander 31-700 Finishing Machine 4" Belt / 12" Disc 1960 CN 515 Rosenberg, Howard
07/11/2014 Table Saw Unisaw 34-405 10" 1949 80-9639 Trahan, Robert
07/10/2014 Drill Press DP220 schoonover, steve
06/04/2014 Table Saw Unisaw 10" 1950 Schultz, Tim
05/29/2014 Table Saw 34-200, Rockwell Compact Series Bench Saw 8" 19083A Kachadurian, Brian
05/22/2014 Jointer 8'' long bed jointer 5 1/2 foot bed - 4 x 34 inche center mounted fence 5/15/72 EX-3690 Do Carmo, Philipe
05/08/2014 Grinder, Bench 73-101 7", 3450 RPM 1962 131-xxxx O'Boyle, Keith
05/01/2014 Radial Arm Saw 900 9" unknown BM3923 Chasse, Doug
04/28/2014 Sander 31-351 1x42 inch belt 1940s Hg 1034 Zalac, Joseph
04/10/2014 Drill Press 15-017 15" 1972 1536854 neal, jess
04/07/2014 Table Saw 34-426 10" 1973 FR-6109 Crumb, Brendon
03/29/2014 Drill Press 15-655 15" 1966 1411691 Taylor, Chuck
03/17/2014 Jig or Scroll Saw 40-440 24" BO6033 Berdos, Peter
03/12/2014 Drill Press 15" Variable Speed Floor Model Drill Press 15" 1962 1307016 Kirkpatrick, Daniel
03/06/2014 Drill, Radial 4180 11" ~1963 to 1971 P14232 Pace, David
03/04/2014 Lathe, Wood Rockwell/Delta HD Wood Lathe Model 46-450 12" 1975 1643469 Rountree, Frederick
02/20/2014 Jointer 37-315 8" 1976 169 7426 Rian, Myk
02/19/2014 Radial Arm Saw Delta 900 9" 1958 BZ9209 Jaeger, Lukas
02/09/2014 Jointer 37-220 6" 1954 BE1831 Martin, Mike
01/19/2014 Table Saw 34-335 10" FK-2779 Mann, Brad
01/11/2014 Table Saw Unisaw Model 34-450 10" 1954 110-9992 Sheppard, Ron
01/02/2014 Drill Press 17" Variable Speed Drill Press 17" 1970's 95079004 Rohan, Pete
12/31/2013 Jointer 37-207 Jointer 6" 1950 89-2718 Sheppard, Ron
12/20/2013 Table Saw 34-607 9" Contractor's Saw 9" 1976 IM3173 Kurtz, Kenny
12/06/2013 Table Saw Table Saw, Model# 34-335 10" Table Saw Riddle, Scott
11/17/2013 Drill Press 17" drill press 1948 (based on S/N) 69-3493 Lytle, Sam
10/27/2013 Table Saw Model 10 Contractor's saw 34-410 10" Unknown 840D12526 82, Trooper
10/21/2013 Drill Press 15-080 15" morrell, louis
10/19/2013 Table Saw 34-643 Deluxe 9" 9" FW 3047 Tuai, Cameron
10/16/2013 Drill Press 20" DPW 1100 20" 1958-60. 11-2315 Mesquita, Antonio
10/16/2013 Jointer 6" Jointer Model 37-220 6" 1958 CA8167 Martindale, Ron
10/15/2013 Sander Model 31-325 Sander/Grinder 1977 IV1584 Kurtz, Kenny
10/09/2013 Lathe, Wood 46-111 Homecraft 14/11" Gap Bed Lathe 14/11" Wood Lathe 1972 EW-6299 Kurtz, Kenny
10/07/2013 Band Saw 28-200 14" Band Saw 10-3-78 KP1B20 Borden, Tiffany A.
10/02/2013 Drill Press Rockwell Bench Top Drill Press 15" Drill Press 1959 124-8502 doss, darren
10/02/2013 Band Saw 28-200 14" Band Saw - Wood 1967 DS 7550 doss, darren
09/30/2013 Band Saw Model 28-300 Wood/Metal bandsaw 14" October 1974 GV8411 Neihardt, Joshua
09/17/2013 Table Saw 34-200 7" 1965 8350 A Hargenrader, Luke
09/15/2013 Lathe, Wood Model 46-200 Lathe 12 inch 1965 1383636 Buttigieg, Gerald
09/09/2013 Planer, Wood 22-220 6" x 18" 1966 Kready, Jeff
09/09/2013 Drill Press 17-600 17" Drill Press 1969 1444044 doss, darren
08/26/2013 Drill Press 15-655 15 inch floor model unknown, est mid 70's 1604110 Clay, Phillip
08/26/2013 Miter Saw 34-010 9" 1972 EZ 3272 Clayton, Eric
08/24/2013 Band Saw Series 28-200 14" 1974 GD xxxx Carr, Michael
08/19/2013 Drill Press HDP 125 12" 1953 AW 1262 McLaughlin, Kelly
08/07/2013 Sander 31-501 6x48 1966 DM 885 Leis, Dan
07/31/2013 Radial Arm Saw Super 990 9 inch Cook, Steven
07/24/2013 Band Saw rockwell bandsaw 14 inch b1 7728picked up at local scholl was throwing it i whitehead, russ
07/10/2013 Drill Press 17-600 Drill Press 17" 1966 139-9844 Feldt, Brian
07/10/2013 Drill Press Rockwell-Delta 15" Utility Drill Press 15" 1965 1388273 Braunberger, Garry
06/23/2013 Lathe, Metal Model 25-209 14in 1972 1545510 Brown, Gary
06/17/2013 Drill, Radial DP 11 280 32" 1972 (per serial number) FH 2733 Milner, Brian
06/15/2013 Jointer 37-315 8" 1978 1741561 Guss, Andy
06/15/2013 Planer, Wood 22-401 13" x 6" 1972 EY-9660 Guss, Andy
06/14/2013 Band Saw 28-100 10" early 70's FN3412 Vukan, Jonel
06/08/2013 Tenoning Machine Single End Tenoner Big unk 790 Kuist, Tim
06/06/2013 Band Saw wood/metal with cast base 14'' Bandsaw 1953 AO 6936 Muller, Clint
06/06/2013 Radial Arm Saw Super 990 10" 1963 CY8925 reiland, john
05/26/2013 Drill Press 17-400 Drill Press 20" 1962 1319264 Bruner, Rick
05/17/2013 Table Saw Rockwell Table Saw 9" 1957-1975? 8505GB261 Seibel, Roman
05/08/2013 Drill Press 11-280 32" 1971 E13486 Guss, Andy
05/05/2013 Table Saw Model: 34-600 9" 1957 BS4843 P, Bob
04/28/2013 Drill, Radial Delta Radial Drill Press / 11-280 11" GM 7015 Thomas, Olin
04/26/2013 Band Saw 28-380 M/W 14" 1966 DN 5389 Rian, Myk
04/13/2013 Band Saw Band Saw Model 28-113 10" 3/5/1975 HH-4988 Marko, Carl
04/07/2013 Table Saw 34-600 Deluxe, 9" 9" 1957-1975? Seibel, Roman
03/25/2013 Drill Press model 15-665 15" ? 1553225 wilson, gary
03/09/2013 Table Saw 34-395 12/14 Mid to late 70's Unknown Luby, Gene
02/27/2013 Jig or Scroll Saw 40-440 24 1977 JM 6375 Long, Dennis
02/21/2013 Jig or Scroll Saw 40-440 24 1977 JM 6375 Long, Dennis
02/16/2013 Shaper, Wood 43-122 1/4" and 1/2" 1970;s 83H09579 Sowards, Tom
02/15/2013 Table Saw Model No. 34 345 10" table saw January 1975 HA8452 Stubbs, Ryan
02/10/2013 Band Saw 28-200 14" 10/27/70 EP4417 MacRae, Patrick
02/10/2013 Radial Arm Saw 30-C 10" 1960 CO 6174 Satur, Steven
02/05/2013 Jig or Scroll Saw 16" Scroll Saw 16" unknown AB1842 Stanley, Ryan
02/01/2013 Band Saw 890/28-205 14" band saw 1948 62-7053 Klimut, John
01/28/2013 Table Saw Delta Unisaw not sure 1947-1953 110-4524 Brenner, Steve
01/28/2013 Band Saw 28-500 Variable Speed 20" 1962 1334134 Guss, Andy
01/11/2013 Lathe, Metal lathe 11 dillon, chuck
01/02/2013 Drill Press DP 15-655 15" 70's 1757583 Thompson, Doug
12/12/2012 Sander 31-200 8.5" 1960s Shea, Norm
12/10/2012 Lathe, Metal 25-100 11" x 36" 1968 1459977 kelly, charles
12/02/2012 Drill Press 2535A 11" 1950s Fendley, Mike
12/01/2012 Band Saw 28-100 10" 1965 DH-8896 Shea, Norm
11/29/2012 Band Saw 28-110 10" H-5218 Ernst, Mike
11/28/2012 Table Saw 34-600 9" 1965 DI-4434 Shea, Norm
11/28/2012 Jointer 37-290 4" 1963 CZ7575 Shea, Norm
11/24/2012 Grinder, Bench 7" pedestal grinder 7" grinder/pedestal 1971 23-200 152 0352 field, jordie
11/24/2012 Drill Press 11-100 11" 1965 DH-8285 Shea, Norm
11/23/2012 Table Saw Unisaw 10" table saw 1956 117-1283 Dyment, Wayne
11/23/2012 Shaper, Wood homecraft LD shaper 1948 68-6537 Dyment, Wayne
11/18/2012 Shaper, Wood 43-122 Shore, Charles
11/18/2012 Shaper, Wood 43-120 Shore, Charles
11/16/2012 Combo Machine 34-600, 37-290, 62-273 9" Saw w/ 4" Jointer 1956? Saw E17109, Jointer ED8879 Waggoner Sr., Ed
11/08/2012 Table Saw Rockwell/Delta table saw / 34 600 9" 1968 DW 823 Wetter, Mike
11/07/2012 Radial Arm Saw Model 900 9" 1958 BZ1151 Rian, Myk
10/30/2012 Jig or Scroll Saw 24" Jigsaw 87 1140 Walters, Sean
10/27/2012 Table Saw Unisaw 10 inch circa 1950s unknown Buttigieg, Gerald
10/22/2012 Band Saw 12" Bandsaw (w/Ext Kit) 14" 1955 BJ-9684 Brown, Mark
10/21/2012 Jig or Scroll Saw Rockwell 40-440 Scroll Saw ? ? ? Hollman, David
10/21/2012 Jig or Scroll Saw Rockwell 40-440 Scroll Saw ? 1974 GE 3504 Hollman, David
10/21/2012 Table Saw UniSaw sliding table attachment 34-485 10" Hollman, David
10/14/2012 Jointer 37-315 8" 1972 EZ-7384 Bowser, Ryan
10/07/2012 Sander Model 31-710 6 x 48 inch Belt/ 12 inch Disc 1976 IG 8617 Buttigieg, Gerald
10/07/2012 Drill, Radial Radial Table Model No. 11-280 32 inch 1968 DZ 2455 Buttigieg, Gerald
09/20/2012 Table Saw Unisaw 10" 1966 Swearingen, Jason (Brad)
09/19/2012 Jointer 4" Jointer 4" 1940's? Ernst, Mike
09/19/2012 Drill Press 11-120 11" 1940's? A 11713 Ernst, Mike
09/17/2012 Band Saw bandsaw 14" 1947 71-4674 mancuso, randy
09/10/2012 Jointer 37-220 6" 302368 craig, rushby
09/06/2012 Grinder, Bench 23-200 7" 1974 159-654 Leis, Dan
08/29/2012 Lathe, Metal 10" x 24" Metal Lathe 10" x 24" 1958 ? 123-4986 Hand, Greg
08/26/2012 Band Saw AH 1586 bandsaw 10" 1952 AH-1586 Nielsen, Karen
08/24/2012 Table Saw Unisaw 10" Table Saw Duncan, Mark
08/15/2012 Band Saw 28-300 14" Wood/Metal Bandsaw 14" 9-16-1974 GZ1020 Pearson, Jack
08/12/2012 Other SCROLL SAW 40-100 16" EB4604 Oller, Edward
08/11/2012 Band Saw 28-200 Modified Not Sure Cast Stamp 8-14-75 H03460 Mackey, Ralph
08/03/2012 Lathe, Wood model 46-525 wood lathe 12" 1972 FB-1857 wrenn, ronald
07/22/2012 Drill, Radial 15-126 6" stroke 1984 84L83503 Lifer, John
07/17/2012 Drill Press Compactool 11-000 Unknown 5xxx-B Carr, Michael
07/16/2012 Radial Arm Saw 16-RAS 16" 1968 EF3726 manos, mark
07/10/2012 Table Saw 34-643 9" Deluxe Contractor Saw 1973 FK-1500 Aumack, Craig
07/06/2012 Shaper, Wood 43-340 HD Early 60's CS 640 James, CPeter
06/22/2012 Radial Arm Saw Cat.# 30C 10" 1961 CR7430 O'Dell, Wes
06/17/2012 Band Saw Rockwell/Delta M/W 28-380 14" 1966 DN5389 Rian, Myk
06/14/2012 Drill Press Standing drill press,DP 660,Model # JC 828910 C 15'' ? 72-9684 cole, tina
06/08/2012 Band Saw band saw 1956 BO1953 Vowles, Cory
06/04/2012 Shaper, Wood 43-371 3/4" Spindle 1982 82K01575 Delyster, Mike
06/03/2012 Shaper, Wood Heavy Duty Shaper 3/4" Spindle 1957 122-665 Delyster, Mike
06/01/2012 Sander 31-700 4"x52" belt, 12" disk mid to late 60s (?) none Biles, Christopher
05/31/2012 Drill Press Model 15-080 15" 1970's 1683461 P, Bob
05/24/2012 Jointer Crescent Heavy Duty Jointer 12" 1945-1948 81150 Wilcox, Rob
05/21/2012 Band Saw 28-350 Band saw 20" 1951 3881 A Johnson, Henrie
05/13/2012 Grinder, Bench Bench Grinder Model No. 23-600A, Serial No. G6-126-17-1068 Smith, Jeremy
05/07/2012 Band Saw 28-200 14 inch G1 -2921 Wenger, Joe
04/29/2012 Table Saw 9" Contractors Saw Model 34-621 9" Contractort Saw January 1983 84D 1145 Haley, Bob
04/29/2012 Drill Press Rockwell 11-120 11" 1956 BN 1740 Richardson, Tony
04/25/2012 Shaper, Wood 43-371 3/4" Spindle 1982 82K01572 Delyster, Mike
04/10/2012 Drill Press 15-081 15" Drill Press 15" 1976 1672328 Stone, Steve
04/09/2012 Drill Press 15-660 15" 1965 1388863 Klimut, John
03/19/2012 Table Saw 34-400 10" Table Saw unknown DK-4615 C, Steve
03/18/2012 Drill, Radial 11-280 32" unknown FM-5300 Schonk, Stephen
03/12/2012 Drill Press 17" Model 17-207 17" 1950 86-789 James, CPeter
02/27/2012 Drill Press 15" Drill Press 15-017 15" 1573878 Olsen, Jack
02/26/2012 Drill Press 15-017 Utility Drill Press 15" 1963 1559522 Tramonte, Chip
02/25/2012 Band Saw Model 28-290 14" 1952 105-3323 Gale, Russell
02/23/2012 Drill Press 17-207 208? 17" 111 2185 Arteaga, John
02/12/2012 Drill, Radial Radial Arm Drill Press 65-200 1962 1305048 Hanson, Mark
02/12/2012 Drill, Radial Rockwell Delta11-280 Radial Drill Press Not Sure 1964 DC 1877 Sontag, Rob
02/12/2012 Drill, Radial Delta Radial Drill Press - Catalog #11-280 Serial #DC7415 Delta 11" Drill Press 1962? Babcock, David
02/12/2012 Drill, Radial Radial Drill Press 11-280 Bench top unknown EW - 9462 Reichow, John
02/12/2012 Drill, Radial RAM Radial Drill Press 6" stroke; 34" swing 1980s Potts, Dave
02/12/2012 Drill, Radial RAM Radial, Model 15-120 6" stroke SN/ 1754881 Potts, Dave
02/12/2012 Drill, Radial 11-280 Radial Drill Press 32" 1960 - something DV-2160 Smith, Jeff
02/12/2012 Drill, Radial 32" Radial Arm Drill Press model 11-280 32" 1968 EA6889 Smith, Neil
02/12/2012 Drill, Radial Model 11-280 Radial Drill Press 32" 1974? GW5216 Flach, Dwight
02/12/2012 Drill, Radial Radial Arm Drill Press model 11-280 32" 197? FY8407 Forsen, Hal
02/12/2012 Drill, Radial 11-280 Radial Drill Press 32" 1976 ?? IF9684 Riddle, Richard
02/12/2012 Drill, Radial Radial Arm Drill Press (#11-280) 32" 1973 Reynolds, Ronald
02/12/2012 Drill, Radial Radial Arm Drill Press 32 " March 1970 Mangrum, Ed
02/12/2012 Drill, Radial Radial ram Drill Press / Model No. 15-126 30" x 6" 4/1982 1818187 Whitlock, Shane
02/12/2012 Drill, Radial Homecraft Radial 11-280 11" Mort, Chris
02/06/2012 Planer, Wood Rockwell Planer 13" x 6" 13" 1980s Kana, Patrick
02/06/2012 Table Saw homecraft tablesaw 8" late 40's 66-6124 kolbus, ray
02/06/2012 Shaper, Wood 43-122 1/2 splindle/ 1 horse 1985 Parson, Jake
01/30/2012 Table Saw Unisaw 10" Tilting Arbor 1955 114-1587 Mohn, Michael
01/30/2012 Jointer 37-220 6" April 1969 EC8977 Lannoye, Grant
01/24/2012 Table Saw Rockwell Delta 12"-14" tilting arbor 12"-14" 1965 138657 Kruer, John
01/24/2012 Drill Press floor model 15-665 15" 1633652 Bennett, Travis
01/21/2012 Drill, Radial 15-120 Ram Type 32" 1968 1456588 James, CPeter
01/20/2012 Lathe, Wood 46-450 Lathe 12" 1586562 Pardo, Ed
01/10/2012 Table Saw table saw TCS-203 10" unknown 123-6309 Steynberg, Dean
01/02/2012 Drill Press 15-081 15 inch Post 1963 1791224 Botkin, Alex
01/02/2012 Jointer 37-315 8" 1975 McGhee, Rich
12/30/2011 Table Saw 34-466 10" right tilt 3hp / 1 ph 115/230 V 1977 JU 2621 gordon, marvin
12/27/2011 Jointer 37-600 Jointer 6" 1970's powell, david
12/24/2011 Planer, Wood 22-101 13" wood planner Early 60's? 1405064 Hurst, Richard
12/22/2011 Jointer 37-315 8" 1957 Bellefountaine (WIKI) 122-3480 Burtini, Luciano
12/22/2011 Jig or Scroll Saw 40-440 24" 1977 (Wiki) JW3653 Burtini, Luciano
12/16/2011 Table Saw Unisaw FA6055 F, A
12/15/2011 Shaper, Wood HD 1 hp 1943 26-4123 byers, larry
12/15/2011 Table Saw unisaw 10" 1953 105-8800 byers, larry
12/10/2011 Planer, Wood 22-101 Planer 13 x 5 1961 1290207 byers, larry
11/20/2011 Lathe, Metal 10" Metal Cutting Lathe, PM-1945 10" x 24" Unknown Lee, Derek
11/08/2011 Band Saw 20" 20" 1955 115-1111 Badman, Bryan
11/06/2011 Table Saw Delta/Rockwell 10" tilting table 10" 1955 114-8078 morley, craig
10/31/2011 Table Saw model 10 contractors saw 34-410 10" 1970's ?? 82AO4303 valdez, hector
10/25/2011 Planer, Wood 22-101 13" x 5" 1963 1334950 Ziegler, Chris
10/13/2011 Table Saw 34-600 9" Tilting Arbor late '50s DE-695 Huff, Jonathan
10/13/2011 Table Saw 12 - 14 tilting arbor 12" - 14" 1950's Bartell, Peter
10/12/2011 Sander 31-600 12"disc, 4"x53.5 belt, 1hp 1961 CU2612 clare, brian
10/06/2011 Table Saw cat 34-450 10" table saw 1965 DJ - 1925 bichard, mike
10/05/2011 Band Saw cat 28-380 14in band saw 1965 DH-5757 bichard, mike
10/05/2011 Drill Press cat 15-650 15in counter top drill press 1965 1384184 bichard, mike
10/05/2011 Radial Arm Saw cat 33-564 10in radial arm saw apporx 1964 DJ-1375 bichard, mike
10/05/2011 Planer, Wood planer cat 22-101 13in planer 1965 1382401 bichard, mike
10/05/2011 Shaper, Wood cat 43-340 heavy duty shaper 1965 DK-6158 bichard, mike
09/28/2011 Band Saw Model 28-200 14" 1982 82K05544 Butler, Tony
09/23/2011 Jointer 37-220 6" 1965 DI - 6680 Beale, Mark
09/22/2011 Combo Machine 34-600 9" Table Saw with 4" Jointer combo March 1957 BS 6792 Siclari, Joe
09/08/2011 Table Saw 34-710 10" Table Saw ? GU 212916 L84 Richardson, Tony
08/19/2011 Radial Arm Saw Super 900 9" CC4606 Esparza, Frank
08/12/2011 Overarm Router Overarm Router/Shaper Model 43-503 1979 1809155 ford, dick
08/09/2011 Sander Belt-Disk Sander 12" disk / 4" X 53" Belt 1959-60 ? DB-7568 ? Marshall, Steven
08/03/2011 Jig or Scroll Saw 40-440 24" 1968? EB5565 Falk, Kenneth
07/29/2011 Drill, Radial Rockwell Radial Drill 1981 1802413 F, A
07/26/2011 Radial Arm Saw 14" radial arm saw, 14-RAS 14" 1W5955 Wirth, Geoffrey
07/07/2011 Motor 62-413 1/3 HP unknown Walker, Rodney
07/05/2011 Planer, Wood Rockwell surface Planer 13" X 5" 1959-1960 1349347 Marshall, Steven
07/03/2011 Band Saw 14" band saw 14" est 1949 Beattie, Justin
06/27/2011 Table Saw table saw, 1160? 10" 1948 61-1421 Siler, Philip
06/12/2011 Jointer 37-220 longbed 6" jointer 6" 64 DK 8652 clare, brian
06/12/2011 Planer, Wood 22-401 13" * 6" 1609350 Burtini, Luciano
06/11/2011 Drill Press Stationary Drill Press 15" 1960s 1318533 Pfeiff, Jackie
06/10/2011 Table Saw 34-220 7" ts 1960s(?) UA 8228 clare, brian
06/06/2011 Drill, Radial Model 11-280 32 60's DD3942 Benavidez, Dave
06/06/2011 Table Saw Unisaw 34-405 (?) 10" 1948 72-3311 Pierce, William
06/04/2011 Jig or Scroll Saw 40-110 16" 1955 BH 8017 Pierce, William
05/28/2011 Table Saw 34-600 8'' 1965 DK 2444 Silack, Stephen
05/27/2011 Jig or Scroll Saw scroll saw 40-110 16" 1950s J-4381 Rian, Myk
05/22/2011 Table Saw unisaw 10" table saw est 1949 Beattie, Justin
05/21/2011 Table Saw 34-450 unisaw 10" 1968 DZ- 3188 lane, gregg
05/18/2011 Table Saw Unisaw 10" 1956 118-974 Mackey, Roy
05/08/2011 Drill Press Drill Press model 65-317 15" unknown 1321813 Sperber, Perry
05/05/2011 Drill Press 11-000 3379-B Rutherford, Roy
04/24/2011 Combo Machine Tilt arbor table saw with Homecraft precision jointer series 34-603 9" Table saw, 4" jointer FK-8307 (TS) BR7613 jointer Whitaker, James
04/24/2011 Table Saw 34-450 10" unisaw 1967 DZ-3188 lane, gregg
04/11/2011 Planer, Wood RC-33 13" 11/1981 1961 Bliven, Doug
04/05/2011 Sander 12" Disc Sander 12" 1961 CS-7874 Côté, Benoit
04/03/2011 Drill Press 15-081 15" 1970's 1786271 Kerfoot, John
03/29/2011 Sander 31-710 12" Round 6" x 48" Belt FL-1430 Metcalf, Brad
03/27/2011 Table Saw 34-476 10in. ? HM6601 Elam, George
03/15/2011 Drill Press 11-100 11" Bench Top 1950's E03917 Hartman, Brian
03/15/2011 Band Saw Model 28-113 Band Saw 10" mid 1970's ID4121 Hartman, Brian
03/05/2011 Radial Arm Saw 14-AS 14" 1969 GM 8575 Duncan, Mark
03/05/2011 Sander Finishing Machine 4" Belt 12" Disc No. 31-700 Machine 4" Belt 12" 1966 DN2858 Côté, Benoit
03/01/2011 Drill Press 15-665 15" 50's-60's 1638909 Hoffman, Kirk
02/28/2011 Jointer 4" Homecraft 4" 1957 BT-5502 Dyment, Wayne
02/27/2011 Jointer 37-315 8" 1970's ?? 1777630 vanEttinger, Jim
02/21/2011 Sander 31-710 6"x48" belt and 12" disk 1971 ER4429 Hess, Mike
02/20/2011 Shaper, Wood HD Shaper 43-340 1971 EN 4898 Trahan, Robert
02/07/2011 Jointer 37-220 6" ? CN 2501 Limehouse, Terry
02/07/2011 Lathe, Wood 46-111 11"/14" ? DO2924 Limehouse, Terry
01/30/2011 Drill Press Variable Speed Model 15-655 15" 1979 1784178 Pierce, William
01/29/2011 Jointer 37-315 Rockwell Jointer 8" 1647704 Kobes, Jason
01/29/2011 Jig or Scroll Saw 24" Rockwell Scroll Saw 24" Kobes, Jason
01/23/2011 Planer, Wood 18" "Wedgebed" Planer 18" unknown -please help DP 9169 Stockner, Todd
01/18/2011 Jig or Scroll Saw Rockwell Delta Homecraft 16" Scroll Saw 16" 1950's Q-1475 Salata, Greg
01/18/2011 Band Saw 28-300 bandsaw 14" 1960's Salata, Greg
01/15/2011 Combo Machine Saw Jointer Combination 9" table saw /4" jointer 1970s Duncan, Mark
01/09/2011 Grinder, Bench 23-200 7" 1966 ? 1419338 newton, paul
01/06/2011 Lathe, Metal 25-450 11" metal lathe 11"swing 36"centers 1979 1770760 Cirincione, Peter
01/06/2011 Table Saw Unisaw 9" 1951 99 6581 Fish, Robert
01/05/2011 Band Saw 28-240 Bandsaw 14" 1982 MC6445 Germain, John
01/05/2011 Table Saw Unisaw 10" Table Saw 1971 EZ-4219 twombly, michael
01/02/2011 Jig or Scroll Saw Scroll Saw Model 40-211 24" 1956 CN3700 Corneil, Bill
01/02/2011 Grinder, Tool and Die 23-501 6" 1966 1420567 Corneil, Bill
12/31/2010 Lathe, Wood 46-111 14/11" 1974 GL 3055 Veschio, Leo
12/27/2010 Table Saw 34-440 10" Rodgers, Jim
12/19/2010 Planer, Wood 22-201 18" 1980 1802215 Jordan, Jeff
11/30/2010 Shaper, Wood Model 43-120 Light Duty 1976 KP 494 Buttigieg, Gerald
11/30/2010 Combo Machine Model 34-600 9 inch 1968 DZ 450 + RSA 970 Buttigieg, Gerald
11/30/2010 Band Saw 28-300 14" 1968 EF-XXXX Cirincione, Peter
11/29/2010 Drill Press Bench Top Drill Press Thompson, Jake
11/14/2010 Drill Press 15-655 Variable Speed Press 15" 1970's 1792690 Aquino, Bob
11/13/2010 Drill Press 14-000 14" 1293007 Culver, Mike
10/25/2010 Sander Model 31-710 Belt/Disc Sander 6x48 w/ 12" Disc KZ 6815 Marx, Greg
10/24/2010 Lathe, Wood 46-111 14/11" 1972 FF-7042 Kackstetter, Max
10/14/2010 Table Saw Cat. # 34-425 10" Tilting Arbor Bench Saw {Industrial Power Tool Series} 10'' Table Saw December 1957 Richard, Steve
10/10/2010 Lathe, Wood 46-450 12" lathe 1975 1655584 Lifer, John
10/10/2010 Lathe, Wood 46-450 12" lathe VS 1975 1655547 Lifer, John
09/19/2010 Drill Press Gang Drill Press F, A
09/13/2010 Jointer COMPACTOOL Jointer 4" 1965 7411 Connet, Michael
09/04/2010 Sander Belt Disc Sander 6 x 48" 40490 Mackey, Roy
09/02/2010 Shaper, Wood 43-205 HD shaper 1/2, & 3/4 spindle 1954 113-922 Kaufman, Milt
09/02/2010 Shaper, Wood 43-120 LD shaper 1/2" spindle 1982 LO-8111 Kaufman, Milt
08/31/2010 Table Saw 34-450 10" Unisaw 10" 1967 DY6689 Kaufman, Milt
08/19/2010 Jointer Model 4 Jointer 37-290 4" KW6690 Tuleja, Don
08/19/2010 Table Saw Rockwell Homecraft 10" Table Saw, Model 34-660 10" JA6737 Tuleja, Don
08/19/2010 Combo Machine Combo 9" TS / 4" Jointer 9" / 4" Early 70's KW5599 (TS) / KW6690 (Jointer) Tuleja, Don
08/06/2010 Shaper, Wood Light Duty Shaper / Model No. 43-120 1/2 inch 1976 KB9096 Whitlock, Shane
08/06/2010 Band Saw Model No. 28-243 14 inch 1981 85E13733 Whitlock, Shane
08/05/2010 Radial Arm Saw Super 900 9" 1961 CR 3422 Burstedt, Jerry
07/27/2010 Band Saw Wood/Metal - Art Deco Base 14 inch 1953 AO-6469 Deegan, Michael
07/21/2010 Table Saw Delta Unisaw 10" Table Saw 1953 110-4603 Bay, Mark
07/13/2010 Table Saw unisaw junior 34-265 8" 1949 73-5282 Kerfoot, John
07/02/2010 Table Saw Unisaw 34-450 10" 1960 Franz, Mark G.
06/29/2010 Lathe, Wood 46-450 VS Lathe 12" Swing 1970 El5634 Aquino, Bob
06/28/2010 Sander 6"X48" belt sander/model#31-501 6" X 48" 1966 DM 1090 Smith, Kenneth
05/16/2010 Other Tenoning Jig n/a n/a n/a Buttigieg, Gerald
05/03/2010 Jig or Scroll Saw 40-440 24in 1968 EC2538 Walker, Tom
05/01/2010 Lathe, Wood wood lathe 127-616 Standiford, Mark
04/25/2010 Band Saw Band Saw 10" 1954 (estimated) BD 1494 Johnson, Arne
04/24/2010 Radial Arm Saw 14" Radial Arm Saw 14" CC 4571 Robertson, Gordon
04/24/2010 Jig or Scroll Saw Rockwell Delta Homecraft 16" Scroll Saw #40-110 16" 1953 AS4132 Brenneman, Samuel
04/21/2010 Drill Press Model 15-655 15" 80's vintage Aquino, Bob
04/17/2010 Band Saw Rockwell Delta 14" Unknown 95-1531 Hart, John
04/11/2010 Drill Press 17-600 17" unknown 1529926 Fedorko, Larry
04/10/2010 Combo Machine Model 1164 Tilting Table / Jointer 10" Saw / 6" Jointer 1962 Buttigieg, Gerald
04/09/2010 Jig or Scroll Saw 40-440 24" 1979 KY8128 Parker, Jeff
04/06/2010 Table Saw TCS-203 10" unknown 67-3664 Kreger, Treacy
04/05/2010 Jointer 6" Open Stand Jointer 6" 1955 BK 489 McEntee, Greg
04/04/2010 Band Saw Delta Homecraft Bandsaw 10" Bandsaw, 1/3rd HP 1952-1957 ? BD 1834 Sales, Frank
04/03/2010 Table Saw 34-440 10 inch 1977 JF5282 Perry Jr, Ronald L
03/24/2010 Band Saw 28-200 Band saw 14" 1976 IK 5270 Lopez, Dave
03/22/2010 Jointer 6" Jointer 6" Province, Rob
03/22/2010 Sander 31-122 12" Disc 1970's JR8316 Gragg, Stanton
03/12/2010 Lathe, Wood 12" gap bed heavy duty variable speed 12" 37" bed 1970 i think ervin, eric
03/11/2010 Lathe, Wood Lathe Model 46-111 12 inch 1967 DR 6001 Buttigieg, Gerald
03/11/2010 Planer, Wood Model 22-401 Planer 13" x 6" 1975 1645694 Belanger, Nelson
03/07/2010 Band Saw Model 28-350 20" 1020-A Webster, Chip
03/03/2010 Jointer 37-600 6" 70's 02250 Testerman, Gary
03/02/2010 Shaper, Wood 43-205 1/2" Spindle 1955 116-317 Burk, John
03/02/2010 Radial Arm Saw 4183 (Rockwell Plus 105) 9" 1963 (casting date) 399D Barozinsky, Rick
02/26/2010 Sander 31-122 12" Disc 1970's JR8316 Gragg, Stanton
02/25/2010 Table Saw 34-500 8" 1955 BK-1556 Adams, K.C.
02/23/2010 Table Saw Contractor's Saw Model 34-607 9" HM5987 Mele, Paul
02/22/2010 Planer, Wood 22-300 6" DX4464 pugh, ray
02/15/2010 Drill Press 15'' drill press 15'' 1971 1530408 brandelli, greg
02/09/2010 Table Saw Unisaw 10" 1979 (approx) LC9978 Hess, Mike
02/05/2010 Drill Press 17-600 Drill Press 17" 1985 1793085 Fuller, Eric
02/01/2010 Sander 31-352 1"x42" 1977 JJ-3663 Liechty, Jim
01/29/2010 Other Uniplane Model #22-300 ROCKWELL UNIPLANE Late 1970's ? 1712114 Benavidez, Dave
01/22/2010 Lathe, Wood 46-450 12" Variable Speed ? 1798280 Kerr, Lyle
01/21/2010 Lathe, Wood Rockwell 12" 1948 69-5585 Christel, Dennis
01/13/2010 Radial Arm Saw 33-310 10" 1975? C8193X Foster, Lamar
01/10/2010 Jointer Rockwell/Delta jointer 4 inch late 60's ? EA3664 Savage, Bob
01/03/2010 Lathe, Wood 46-140 gap bed lathe 11" x 36" 1986 GU559374I86 L, John
01/03/2010 Jointer Rockwell 6 inch Jointer 6" 1969 I think. Duncan, Mark
01/01/2010 Table Saw unisaw 34-405 10" 1949 76-4387 helie, alain
12/26/2009 Shaper, Wood 43-340 1963 CV8973 grockenberger, ryan
12/26/2009 Grinder, Bench 7" Grinder 1960 127-2812 grockenberger, ryan
12/20/2009 Band Saw Model 14 Bandsaw 14" Late 70s early 80s Duncan, Mark
12/10/2009 Jig or Scroll Saw 16" Scroll Saw 16 inch B9169 Babcock, David
12/06/2009 Drill Press Rockwell drill press model 15-091 15" 1970's ? GU597394 I84 Shelton Jr, Harry
12/03/2009 Grinder, Bench Model 23-200, 7" bench grinder 7" 1602170 Bough, Neil
11/22/2009 Drill Press 15-655 VS 15" 1970's 1792689 Aquino, Bill
11/20/2009 Jointer 37- 110 4" Jointer 4" 1950s L-2713 Pipes, Robert
11/16/2009 Sander FP-4103 12in disc 70s 31-122 Waschkowsky, Matt
11/16/2009 Table Saw 34-761 10in 1975 KX7035 Waschkowsky, Matt
11/16/2009 Sander sander/grinder 1in 42in 70s none Waschkowsky, Matt
11/15/2009 Lathe, Wood 46-111 pre 1974 GA-3670 SMITH, DON
11/09/2009 Radial Arm Saw super 990 9" 1962 CW 5042 Fox, Robert
11/07/2009 Radial Arm Saw Rockwell Radial Arm Saw, Series 33-267, 10" 6071-B Cozad, Gregory
11/03/2009 Planer, Wood 22-200 18" 1968 DV 9229 Wiggins, Michael
10/25/2009 Sander 31-710 12" disc / 6" x 48" belt 1980 LD8083 Foster, Lamar
10/19/2009 Drill Press DP-600 17" Drill Press 93-7291 Moore, Marvin
10/19/2009 Lathe, Wood 46-201 1970 EN 509 Swearingen, Jason
10/14/2009 Table Saw 12 14 inch braddish, charlie
09/17/2009 Drill Press DP-220 14" Benchtop 1949 74-8103 Bliven, Doug
09/17/2009 Drill Press 15-081 15" Utility 1976 1672311 Bliven, Doug
09/17/2009 Drill Press 15-146 VS6 Walker Turner / Rockwell 15" Variable Speed Drill Press 1964 1352081 Bliven, Doug
09/16/2009 Table Saw Rockwell 10" Table Saw 34-335 10" FZ 5264 Martilla, Russell
09/15/2009 Table Saw 34-400 10" unknown DH-4820 Sylvester, Robert
09/14/2009 Jointer 37-220 Professional 6" jointer 6" 1977 257222 Joslin, Jeff
09/14/2009 Drill Press VS Mdl 15-655 15in 1970 1509448 Walker, Tom
09/03/2009 Jointer 4" Jointer - Catalog # 4316 4" P 6167 Schultz, Mike
08/28/2009 Jointer 4 inch jointer 4 inch A 16016 Metsch, Stephen
08/24/2009 Shaper, Wood Homecraft Light Duty No. 43-110 1/2 " 1948 72-4270 Aromaa, Karl
08/21/2009 Table Saw Unisaw 10" 1954 112-9830 Davis, Grant
08/15/2009 Radial Arm Saw Model 16-RAS or 33-771 16" November 1976 HV-1887 T., Liem
07/31/2009 Jointer 37-220 6" jointer 155503 Burtini, Luciano
07/27/2009 Band Saw Delta Rockwell 28-290 14" bandsaw 14" DO7788 Harrington, Greg
07/26/2009 Jointer Delta 37-220 6" jointer 6" BS9740 Harrington, Greg
07/25/2009 Radial Arm Saw M-10001 10" mid-1950's BU9448 Smith, Thomas
07/21/2009 Sander 31-122 12 inch Disc Sander 1973 FZ 7745 Buttigieg, Gerald
07/09/2009 Jointer 8" Long-Bed with Steel Stand 8" Not known - guessing early 70's 1631753 Mackenzie, Don
07/06/2009 Jointer 37-301 8" Approx. 1951 5676-A Ward, Steve
07/06/2009 Band Saw 28-380 14" W/M 1965 DJ-9100 Bliven, Doug
07/03/2009 Sander 12" Disc Sander 12" 1960 CL5784 Gangl, Jason
07/01/2009 Shaper, Wood 43-110 Light Duty 1968 EA-3431 Walker, Tom
06/20/2009 Jointer 37-207 6" 1949? 78-6056 wilson, jeff
05/10/2009 Table Saw Unisaw 34-450 10" 1968 EF8827 Murphy, John
05/07/2009 Drill Press 15-655 15" 1981 1814733 Aquino, Bob
04/30/2009 Jointer 8" jointer 8" mid - 50s? 9774-A Fitzgerald, Bradley
04/28/2009 Table Saw 34-350 12"-14" mid-late 60's 147-3387 Miller, Dan
04/23/2009 Band Saw 28-200 14"" 1968 ea7118 StAnge, Ken
04/17/2009 Table Saw 34-600 9" 1968 EC4910 Billups, Joshua
04/16/2009 Jointer 37-220 Jointer (aka Delta) 6" Delux 1965 DK 8372 Hudy, Peter
04/11/2009 Band Saw Wood / Metal Cutting 14 inch 1957 BR 296 Buttigieg, Gerald
04/11/2009 Jointer Model 37-315 8" 1974 1624293 Buttigieg, Gerald
04/07/2009 Jointer 37 220 6" 1966 DO4407 Haxton, Tom
03/30/2009 Radial Arm Saw 33-216 10" radial arm saw 10" Kretschmann, Noll
03/20/2009 Band Saw 890 14" 1948 67-7803 Sullivan, Jay
03/17/2009 Shaper, Wood 43-340 HD 1/2" Spindle 1965 DI-2861 Hagen, Darnell
03/04/2009 Radial Arm Saw Super 990 9" 1961 estm CV-5365 Couch, Paul
03/03/2009 Table Saw Rockwell 12-14 12-14" 1986 1728186 thompson, daniel
03/02/2009 Table Saw Unisaw 34-405 10" 1951 March 94-2826 Couch, Paul
03/01/2009 Jointer 37-220 6" 1959? CJ-2007 Patterson, Mike
02/22/2009 Table Saw Rockwell Delta Table saw 10" 1960's ? BM6908 Rodwell, Gene
02/18/2009 Drill Press 11-100 11" EB 494 newton, paul
02/16/2009 Band Saw 28-300 14" ~1979 L12175 Loup, Kurt
02/04/2009 Shaper, Wood Heavy Duty / M/N:13-350 KS5756 hall, kevin
02/02/2009 Band Saw Rockwell 28-300 14" 1968 DZ4888 Foster, Lamar
01/26/2009 Sander 6" Abrasive Belt Finishing Machine / Model No. 31-520 6"x48" 1972 EG1690 Whitlock, Shane
01/18/2009 Table Saw Unisaw 34-771 10" 1981 LI2941 Lopez, Dave
01/08/2009 Band Saw 28-100 10" Jan 28, 1971 EP4382 L, John
12/30/2008 Table Saw Unisaw 34-466 10" 1970's IV 618 Gragg, Stanton
12/29/2008 Band Saw 14 inch Band Saw 28-200 14 inch Aug 1980 S/N LG 3059 Buttigieg, Gerald
12/25/2008 Table Saw Unisaw 10" 1972 FA-5816 Gangl, Jason
12/13/2008 Jointer 37-220 Professional 6" jointer 6" jointer 1972 Tag Missing Bliven, Doug
12/13/2008 Sander 31-710 6" Belt 12"Disk Sander 6x48" Belt, 12" Disc 1972 EW 5692 Bliven, Doug
12/13/2008 Lathe, Wood 46-111 Pre 74 based on "r" logo G1 6033 Cowell, Duncan
12/10/2008 Table Saw Contractors Saw 10" 1973 GX1773 34-426 Gatinho, Dean
12/09/2008 Sander Belt and Disc Sander 1973 31-710 GE 3716 Gatinho, Dean
12/09/2008 Combo Machine Rockwell/Delta 10'' table saw/ Tauco 6'' jointer combo machine 10'' saw + 6'' jointer Saw GK 9147 - Jointer 1747 Meuwese, Frans
12/01/2008 Drill Press 15-069 floor model 1960's? 1685116 Carver, Barry
11/24/2008 Band Saw Wood Cutting 14" Strefezza, Joe
11/17/2008 Band Saw 28-200 14" Bandsaw 1970's ? 229805 Burtini, Luciano
11/05/2008 Band Saw Model 14 14" 1970's K02304 Horowitz, Darrin
10/28/2008 Sander 31-710 6"x48" belt 12" disc 1975 HH5625 Beko, Rick
10/26/2008 Drill Press 15-080 15" early 70's 1747916 Anderson, Dale
10/23/2008 Drill Press Utility Drill Press - Model 15-017 15 Inch 1970's Wassack, Thomas
10/14/2008 Jointer 37-220 3/4 HP Czygan, Bill
10/14/2008 Sander Sander 31-710 12" Disc - 6" X 48" Belt 1958 ? HC 6553 Ross, Doug
10/05/2008 Sander Mod 31-426 Disk Sander 12 inch, 1/2 HP 1970 EJ4327 Mullen, Pat
10/03/2008 Table Saw 34-450 10" 115-4568 Murphy, Bridey
10/01/2008 Band Saw 28-200 14 inch 1974 GG 2022 Buttigieg, Gerald
10/01/2008 Lathe, Wood 46-450 121-4714 Murphy, Bridey
09/29/2008 Jointer 37-290 4" Early 60's davey, john
09/29/2008 Table Saw 34-425 10" ~1965 davey, john
09/26/2008 Shaper, Wood BENCH TOP ON STAND 1/2" SPINDLE 15"x 18" TABLE Strefezza, Joe
09/19/2008 Jointer 4" Jointer, Model 37-110 4" 1968 DZ6088 Eaton, John
09/05/2008 Drill Press 15-655 VS-6 15" 1979 1792555 Bliven, Doug
09/02/2008 Jointer Model 37-315 8" Jointer 8" Early 1970's ? DV7355 Seehuetter, Chuck
08/31/2008 Other Wood Turning Duplicator 11" & 12" lathes 1964 n/a Buttigieg, Gerald
08/30/2008 Band Saw Porta-Band 2 speed portable bandsaw, model 728, type 1 4 1/2" unknown 4720 Parks, Gary
08/30/2008 Sander belt sander 6x48 50s none Waschkowsky, Matt
08/29/2008 Drill Press floor model 15 in 70s 15-017 Waschkowsky, Matt
08/24/2008 Radial Arm Saw Model 30-C 10" 1.5 HP RAS 10" 1961 CS3620 & CS3629 Crutchfield, Calvin
08/23/2008 Jointer Model 37-220 Jointer Jointer 6 inch would be after 1961 Buttigieg, Gerald
08/20/2008 Sander Belt / Disc Sander Model 31-710 Belt 6" x 48" / Disc 12" Unknown JF 1030 Buttigieg, Gerald
08/18/2008 Jointer 4 inch Jointer 37-110 4 inch 1964 RSA 1590 Buttigieg, Gerald
08/17/2008 Table Saw UNISAW 10" Strefezza, Joe
08/11/2008 Table Saw 9" Deluxe Builder's Saw Model 34-607 9" Table Saw 1977 ? KX 2727 McCarry, Jane
08/07/2008 Table Saw 34-440 Contractors Saw 10" 1970s Varner, Bryan
08/06/2008 Jig or Scroll Saw 24" Scroll Saw 24" AW 8707 Flynn, Scott
07/31/2008 Sander Foley Model 371 1" x 42" Belt Sander w/ 1/2 HP Motor 1" x 42" 1970s? Eaton, John
07/30/2008 Table Saw Unisaw 10" Cabinet Saw 10" 1948 74-5539 Eaton, John
07/30/2008 Miter Saw Rockwell 34-101 Motorized Miter Box 9" FA-344 Eaton, John
07/29/2008 Planer, Wood 22-101 13" x 5" 1961 D02316 Naugle, David
07/28/2008 Table Saw Unisaw 10" 1949 estimated 76-4480 Hayes, Don
07/24/2008 Drill Press Drill Press 11-120 1940s D6059 Twiss, Dana
07/24/2008 Combo Machine table saw/jointer 9" table saw, 6" jointer 1940s Twiss, Dana
02/03/2008 Radial Arm Saw RAS 33-267 10" 70s 5508-C Hanning, Jeffrey
01/13/2008 Table Saw Unisaw 10" 1958 112-9942 Coffin, Greg
01/13/2008 Shaper, Wood Model 43-350 HD Shaper 1/2" and 3/4" spindles 1972 FD-8012 Coffin, Greg
01/11/2008 Jig or Scroll Saw Homecraft Jig Saw 16" Throat 1950s? G 7989 Matiss, Boris
01/06/2008 Grinder, Bench 23-570 Combo grinder-sander 7" wheel, 2" wide belt 1973 157-9632 Lenzi, JB
01/06/2008 Table Saw 8" Delta Homecraft TS 8" 50's ? BN2925 Davis, Paul
01/05/2008 Sander 31-426 disc sander 12" 1961 CU-1786 Lenzi, JB
12/17/2007 Lathe, Wood 62-228 FH56C17F305A WCCW zada, carol
12/08/2007 Jointer Delta/Rockwell 37-290 Jointer 4-inch 1965 DJ 669 McGowen, Richard
12/05/2007 Lathe, Wood Homecraft 11" x 36" Unknown AP 4054 Hodges, Matthew
11/24/2007 Radial Arm Saw Super 900 9 inch Storrs, William
11/24/2007 Jointer 4 inch Storrs, William
11/20/2007 Table Saw Model 10 (34-410) Contractor's Saw 10" Unknown Unknown Hollingsworth, Jay
11/06/2007 Band Saw 28-350 20" Bandsaw 20 inch mid 1960s? 1410483 Kumpf, Don
10/26/2007 Table Saw cabinet saw/unisaw 10" blade unknown to me #CG-3580 Behan, Jeff
10/26/2007 Table Saw cabinet saw/unisaw 10" blade unknown to me #39-2821 Behan, Jeff
10/25/2007 Table Saw Unisaw, Model 34-466 10" 1973-1978 LA3034 Ahlgrim, Walt
10/17/2007 Band Saw 28-240 14" 1982 82K02179 turner, charles
10/17/2007 Table Saw contractors saw 10" Juvenal, Timothy
10/17/2007 Table Saw Unisaw 10" 1961 CP 2663 Juvenal, Timothy
10/15/2007 Lathe, Wood 46-450 barnes, jeffery
09/23/2007 Table Saw 9" Deluxe 34-643 9" 1972 34-643 Randall, Wayne
09/17/2007 Drill Press 11" bench model 11" 70's ? Grieser, John
09/11/2007 Jig or Scroll Saw Scroll Saw -Model # 40-440 24" ? hp 9228 Benedict, Peter
08/31/2007 Table Saw 34 450 DG 247 Henninger, Scott
08/28/2007 Drill Press 11-100 not sure not sure EH8406 Lanier, Jon
08/25/2007 Table Saw Unisaw 10" 87-9124 Zahrobsky, Matthew
08/12/2007 Jig or Scroll Saw 24" Scroll Saw 24" unknown B06293 Gimplowitz, Art
08/11/2007 Table Saw Unisaw 34-450 10" 1970 EM3298 Falk, Kenneth
08/08/2007 Table Saw cabinet saw/Unisaw 10" blade unknown to me 112-4402 Behan, Jeff
07/18/2007 Radial Arm Saw 990 1965 DG 9225 Buttigieg, Gerald
06/01/2007 Planer, Wood 22-200 18" late 1960's or early 1970's. Streff, Dick
05/26/2007 Table Saw 34-335 10" circa 1970 baumgartner, steven
05/06/2007 Planer, Wood RC 51 20 " 70'S RICHMAN, MIKE
04/17/2007 Shaper, Wood Heavy Duty Shaper 3/4" spindle 1959 123-6125 Palsulich, Bruce
03/26/2007 Radial Arm Saw 12-RAS 12" 1960--1970's? JS3936 Stapleton, Michael
03/25/2007 Table Saw Unisaw Jr./ sn- 87-6846 8" table saw Unknown 87-6846 Roche, Jim
03/15/2007 Jointer 37-315 8" 70s morrell, louis
03/08/2007 Combo Machine Homecraft Rockwell/Delta 8" Tilting Table saw with 4" Jointer Late 1940's 45 through 50??? 88-4795 Holmes, Chris
03/05/2007 Radial Arm Saw Model TRT-2313, Radial Arm Saw 10" ? 558 Rambo, Luke
02/27/2007 Band Saw 28-300 Wood/Metal Bandsaw 14" 1979 LK4396 Lower, Roger
02/10/2007 Radial Arm Saw 16-RAS 14" but a mishmash of parts 1960's?? EF3650 Fichman, Erran
02/10/2007 Shaper, Wood HD Shaper 3 hp Boyd, Troy
01/03/2007 Band Saw RockWell 14" BandSaw 14" Around 1974 LD4108 Ross, Doug
12/30/2006 Band Saw 28-3X0 20" 1780260 Hoelzeman, George R.
12/20/2006 Lathe, Wood 4321 14/11 x 36 Unknown P6677 Poore, Kirk
12/11/2006 Band Saw Rockwell 20" Bar 20" Bar Spigelmyer, Scott
12/08/2006 Table Saw 34-440 10" ??? JF4818 KIMBELL, BRIAN
12/08/2006 Radial Arm Saw 50C 14" 1966 Harman, David
12/02/2006 Table Saw Contractor Saw, model 34-348 10" 1977-1981 K09047 Miskell, Tom
11/30/2006 Lathe, Wood 3600-0 Camposilvan, Peter
11/28/2006 Table Saw Rockwell Delta Deluxe 9 9" August 1972 FC 2188 Broskley, John Randall
11/27/2006 Table Saw Contractor saw 10" January 19 1975 HB 7711 Broskley, John Randall
11/27/2006 Radial Arm Saw Delta Rockwell super 990 9" November 1962 CY 5053 Broskley, John Randall
11/16/2006 Overarm Router Rockwell overarm router ? 43503 Pruitt, John
11/16/2006 Band Saw Rockwell Bandsaw 28-350 20" 1968 1485605 Pruitt, John
11/16/2006 Band Saw Bandsaw 14" 1952? 102-3047 Pruitt, John
11/13/2006 Table Saw 34-300 10" Tilting Arbor Table Saw 10" with solid cast iron wings Pre 1974 EG5818 Sanders, Jim
11/12/2006 Sander 31-730 Combination Belt and Disc Finishing Machine 6" Belt and 12" Disc 1979? LO 1651 Ciemian, Alan
11/10/2006 Radial Arm Saw 33-310 10" Approx. 1975 C6581 Calhoun, Ken
11/07/2006 Table Saw Unisaw 10" 1953 111 2733 Brzezinski, Derek
10/28/2006 Shaper, Wood 43-110 light duty 1948 - 52 72-4125 samson, jude
10/23/2006 Shaper, Wood Light Duty Shaper, model 43-120 1/2-inch Spindle, 1 HP 1976 Shields, Karl J.
09/30/2006 Radial Arm Saw 33-892 12" 1970? Wenzel, Daniel
09/27/2006 Jig or Scroll Saw Rockwell/Delta Homecraft #40-110 16" 1952 AH2165 Miskell, Tom
09/25/2006 Shaper, Wood 43-120 Light Duty 1970s(?) JR2667 Pierce, William
09/19/2006 Jig or Scroll Saw 40-440 24" 1960s Lafleur, Alain
09/04/2006 Drill Press Drill Press 20" Model 70-6X0 with power feed 20" 1629675 Smith, Phillip
09/04/2006 Drill Press Rockwell/Delta 20" Drill Press with Power Feed 20 ince 1629675 Smith, Phillip
09/03/2006 Drill Press 220 (?) Benchtop 109-128 Hoelzeman, George R.
08/26/2006 Jointer 37-290 4 inch Early '70s ES 2999 Goeke, Steve
08/23/2006 Table Saw 8" Tilt-Top, no model # 8" Blade Unknown K-8050 McGowen, Richard
08/17/2006 Lathe, Wood Variable Speed Lathe 12"" x 36" 1970 Laracy, Paul
08/07/2006 Jointer 4" Deluxe Jointer 4" 1955 BH 4977 Williams, Keith
08/02/2006 Drill Press DP-220 14" 1951 100-4821 Resch, Tim
07/23/2006 Table Saw Unisaw 10" 3 HP 3 phase 1970's Mantel, Mike
07/22/2006 Table Saw Model 8 Motorized Saw 6 inch Unknown 83F 02188 Buttigieg, Gerald
07/21/2006 Table Saw Unisaw, Catalog No. 34-450, Serial No. DH-6314 10" tilting arbor table saw 1965 O'Connor, Richard
07/21/2006 Radial Arm Saw 33-381 14" '70s 83A04855 Marshall, Chip
07/03/2006 Combo Machine Saw / Jointer Combo Mod 34-600 Saw 8 inch / Jointer 4 inch Unknown DY 6209 Buttigieg, Gerald
07/03/2006 Radial Arm Saw 33- 975C Not Known Unknown 84B64643 Buttigieg, Gerald
06/14/2006 Band Saw Model 28-240 14" late 50s LI 6401 Reichow, John
05/03/2006 Drill Press DP 220 14" 89-4057 Kunnen, Mike
05/03/2006 Planer, Wood Wedge Bed Planer 22-200 18" 1323887 Kunnen, Mike
04/15/2006 Sander 31-710 Belt-Disk sander modified 12-inch disk sander only modification (6 x 48 -inch belt) 1970 EK-8831 Shields, Karl J.
04/14/2006 Lathe, Wood 46-111 4-speed wood lathe 14/11 1980 LG1250 Grove, Frans
04/06/2006 Jointer 16' Jointer 16" CA 524 Hastings, Michael
03/26/2006 Band Saw Homecraft 10" 1940s 0-749 McConnell, Sean
03/15/2006 Drill Press 14" ? 97-2867 Leadabrand, Marc
03/15/2006 Grinder, Bench 6" 66-259-17 Leadabrand, Marc
03/12/2006 Shaper, Wood Rockwell Shaper mod # 43-120 1/2 inch spindle mid 70's? Mangrum, Ed
03/05/2006 Table Saw 34-345 10" unknown GV 1646 Phillips, Tom
02/23/2006 Grinder, Bench #23-213 with 24V LVC in Pedestal and #23-292 Motorless, Gravity Type Dust Collector 7" Late 1970's 1673447 Sampar, David
02/22/2006 Table Saw 34-350 12-14" tilting arbor saw late 60's 1398495 hyma, sean
02/22/2006 Radial Arm Saw 50-C 20" blade 1960-70's? DN6070 hyma, sean
02/15/2006 Table Saw Unisaw Model 34-450 10" 1960s Lyons, Christopher
02/15/2006 Lathe, Wood delta rockwell lathe CG2766 36" 1959 approx Pauff, David
02/12/2006 Shaper, Wood 5056A 1960s Kachadurian, Brian
01/08/2006 Table Saw Unisaw 10" 1965? cook, doug
12/31/2005 Band Saw 28-3X0 20" 1974? morrell, louis
12/27/2005 Table Saw 34-450 Unisaw Delta/Rockwell 10 " 1966 serial begins with DO Joslyn, Michael
11/22/2005 Jointer Jointer Delta Milwaukee 6" jointer 1950 p, mark
11/22/2005 Jig or Scroll Saw Scroll Saw Table, Delta Milwaukee actual table size 14"x14" stand 7.5"x33.5" 1949 or 1950? p, mark
11/21/2005 Shaper, Wood Shaper Table Table size 27"x36" 1949 or 1950? p, mark
11/07/2005 Table Saw Deluxe 9" Model # 34-643 9" aprox 1970 Wenzel, Daniel
11/07/2005 Table Saw Deluxe 9" Model # 34-643 9" aprox 1970 Wenzel, Daniel
11/05/2005 Radial Arm Saw Multiplex 20-A 8 inch? aprx 1950 wallis, kevin
11/05/2005 Radial Arm Saw Multiplex 40-A 12 inch 220 volt aprx 1950 wallis, kevin
10/22/2005 Sander 31-710 6x48" Belt, 12" Disc Late 1960's Aquino, Bill
10/22/2005 Lathe, Wood 46-450 12" swing, 16" over the gap, 36" between centers 1968 I think.... Aquino, Bill
10/19/2005 Drill Press 48" Variable Speed Unidrill 48 " Unknown ScottSmith, Dean
10/01/2005 Sander Walker Turner Rockwell combo 52.5" Belt ,12" Disc around 1957 Walker, Edward
10/01/2005 Lathe, Wood Lathe, model 46-460 (1297591) 12" X 36" 1960's Harris, Richard
09/15/2005 Jig or Scroll Saw Rockwell/Delta / Model 40-100 Homecraft 16" 16" Scroll Saw Late 50's early 60's Mahler, Daniel
08/25/2005 Drill Press 70-400 20", 7" throw 1964 Forrester, T.J.
08/19/2005 Drill Press Model 70-611 20" 1976 Lenzi, JB
07/31/2005 Band Saw bandsaw 20" ? sometime in the '60s O'Connor, Richard
06/20/2005 Jointer 6" jointer art deco base 6" x 42" ? Warner, Daniel
06/08/2005 Table Saw UniSaw Model:34-450, Serial: DP-7754 10" 1967 Rogers, Chuck
05/08/2005 Sander Model 31-511 ABFM 6 x 48 1957 Rewerts, Doug
05/03/2005 Drill Press Model 20 20" drill press with power feed 60's or 70's Reid, Dennis
04/20/2005 Drill Press 15-665 ?? 1967 Grunden, Tim
04/18/2005 Table Saw Delta/Rockwell Model 34-425 10" late 1960's K, Lee
04/18/2005 Drill Press 15-114 6" stroke ? ? Grunden, Tim
04/17/2005 Table Saw tilting table 8" unknown Honl, Charles
04/05/2005 Radial Arm Saw 10 Plus 33-564 10-12 inch 65 or 66 Savage, Bob
03/09/2005 Table Saw 12"-14" Table Saw ? Cadwell, Jack
03/08/2005 Drill Press VS-6 15" Variable Speed, 15-655 15", 6" Stroke 1978 Ciemian, Alan
03/02/2005 Sander Rockwell Model 1426 Abrasive Disk Finishing Machine 12" 1951 Rewerts, Doug
02/22/2005 Planer, Wood Rockwell Model 13 Planer 13" Variable Speed 70s ? Shetler, Tim
01/15/2005 Grinder, Bench Grinder head model 31-438 6" or 8" unknown Trepanier, Mike
01/12/2005 Other Set of Shaper Cutters Model 1182 1/2" Bore Early to mid fifties Goeke, Steve
01/02/2005 Radial Arm Saw 10 Plus 10 Inch 60's I think Savage, Bob
12/20/2004 Shaper, Wood 43-340 Heavy Duty Shaper 1 HP 1/2" Spindle 1963 Ortmeyer, Charles
11/26/2004 Table Saw Unisaw 10" with 2 Cast iron wings 1947 Groves, Chris
11/26/2004 Lathe, Wood 46-111 Unknown Groves, Chris
11/21/2004 Grinder, Bench Rockwell Grinder. 8" 1 HP. '40. Yanez, Juan Pablo
10/12/2004 Table Saw 10" Table Saw 34-345 (SOLD) 10" 1974 Demerle, Tom
08/17/2004 Band Saw Rockwell Delta Band Saw 10 " 1971 Hannemann, Steve
08/06/2004 Jointer Rockwell/Delta/Crescent 8" mid 1950's Goeke, Steve
07/30/2004 Drill Press Homecraft 11-120 11" 1952 McDaniel, Michael
07/29/2004 Table Saw Unisaw 10" August 1966 Giordano, Tony
07/26/2004 Lathe, Wood 12" wood lathe, mod. 46-510, ser. # 1302720 12" Circa 1962 Snashall, Tom
07/13/2004 Lathe, Wood Variable Speed Wood Lathe 12" 1979 Diaz, Bob
07/01/2004 Radial Arm Saw Delta Super 900 10027 9" Scothorn, John
06/14/2004 Table Saw 34-345 10" 1973 Reynolds, Ronald
06/11/2004 Band Saw 28-350 Bandsaw 20" 1970 Vaughan, Robert M.
06/11/2004 Band Saw 28-350 details 20" 1970 Vaughan, Robert M.
06/11/2004 Band Saw 28-350 bandsaw 20" details 1970 Vaughan, Robert M.
06/10/2004 Shaper, Wood Rockwell shaper #43-120 / 43-122 1/2" spindle Unknown 70's? Paauwe, Bob
06/06/2004 Table Saw 34-600 9" 1957 vest, dave
05/15/2004 Radial Arm Saw Model 33-285 3450 RPM Radial Arm Saw 10" 1950's? Jordan, Eric
05/10/2004 Table Saw Rockwell Contractor Saw 10" 1970,s ? crain, john
05/02/2004 Grinder, Bench Pedestal Grinder - Model #23-415 6" 1958-59 Hyde, Joe
03/15/2004 Table Saw Bench-Top Table Saw,34-426 10" 1971 storz, jeffrey
03/08/2004 Jointer Rockwell 37-130 4" Deluxe 1976 Aldous, Eric
02/20/2004 Band Saw model 28-290 14 inch ? Baker, Harvey
02/19/2004 Sander 1426 12" 50s ?? Grunden, Tim
01/07/2004 Shaper, Wood Rockwell Heavy Duty Shaper (43-361) 2 H.P. 1970 Diaz, Bob
01/07/2004 Sander Verticle/Horizontal Sander 6"x48" belt with 1/2 H.P. motor Late 50's or early 60's Diaz, Bob
01/07/2004 Planer, Wood Model 18 Planer 18" 1971 Diaz, Bob
01/07/2004 Drill Press 15" Drill Presses, 1Floor Model, 1 VS Benchtop 15" 1971 & 1955 Diaz, Bob
01/04/2004 Shaper, Wood Heavy Duty Shaper (Model 43-211) 50's or 60's Davis, Stephen
12/31/2003 Drill Press 15" Drill Press 15" 1971 Davis, Stephen
12/30/2003 Planer, Wood 22-201 18" 1970s Grunden, Tim
12/25/2003 Planer, Wood Rockwell/Crescent 24" 24" x 8" 1940s Grunden, Tim
10/07/2003 Planer, Wood Model 22-432 Planer 13"x6" 1986 A, Y
08/13/2003 Drill Press 11-120 benchtop 11" December, 1950 R, John
06/17/2003 Sander drum sander 8- 1/2" disk & 3" X 3" drum Unknown. Has both Rockwell & Homecraft on plate
06/13/2003 Radial Arm Saw Model 33-582 radial arm saw 10" 1958 Stangeby, Bruce
05/10/2003 Jig or Scroll Saw Scroll Saw mod# 40-102 16" 6-1-1974 Ellington, Mike
05/06/2003 Drill Press 15-126 30" x 6" throw 1972 Vaughan, Robert M.
05/05/2003 Table Saw 8" Table Saw / 4" Jointer 8" Delta Rockwell 1940's-50's Grabianowski, John
04/21/2003 Other #31-412 Rockwell, Stephen
04/21/2003 Drill Press #11-120 11" September 1948 Rockwell, Stephen
04/17/2003 Drill Press Unidrill 24" January 1962 Pestrue, Ben
04/04/2003 Band Saw Delta/Crescent 20" 20" Late 1940s to Early 1950s Potts, Dave
03/05/2003 Lathe, Wood 46-111 14/11 Feb. 1973 Rewerts, Doug
03/02/2003 Planer, Wood Model 22-401 Planer 13"x6" 1980 Scott
03/02/2003 Shaper, Wood Model 43-120 Shaper 1970's McTaggart, Reid
02/27/2003 Planer, Wood Model 22-101 Planer 13x5" 1958 Toppin, David
02/27/2003 Jig or Scroll Saw Model 40-211 Scroll Saw 24" March 1956 Rewerts, Doug
02/26/2003 Other Model 22-300 Uniplane 6" 1960's Templeton, Dennis
02/24/2003 Drill Press Rockwell-Delta 15" Utility Drill Press, 15-017 15", Bench Top June 1967 Rewerts, Doug
02/15/2003 Lathe, Wood Rockwell/ Beaver 3400 Lathe 15/11" 1970's Joseph
02/05/2003 Jig or Scroll Saw 40-440 24" 1973 Reynolds, Ronald
01/27/2003 Band Saw Delta/Crescent 20" 20" Late 1940's to Early 1950's Rucker, Keith